createdAt,value
2018-08-16T11:21:43.893Z,30.22
2018-08-16T11:22:43.869Z,30.83
2018-08-16T11:23:43.866Z,30.05
2018-08-16T11:24:43.845Z,30.05
2018-08-16T11:25:43.830Z,30.47
2018-08-16T11:26:43.822Z,30.80
2018-08-16T11:27:43.828Z,30.82
2018-08-16T11:28:43.796Z,31.16
2018-08-16T11:29:43.786Z,31.12
2018-08-16T11:30:43.775Z,31.39
2018-08-16T11:31:43.764Z,31.32
2018-08-16T11:32:43.758Z,31.70
2018-08-16T11:33:43.753Z,31.91
2018-08-16T11:34:43.732Z,31.36
2018-08-16T11:35:43.724Z,31.44
2018-08-16T11:36:43.712Z,31.44
2018-08-16T11:37:43.720Z,31.81
2018-08-16T11:38:43.703Z,31.89
2018-08-16T11:39:43.685Z,32.37
2018-08-16T11:40:43.724Z,33.34
2018-08-16T11:41:43.665Z,33.61
2018-08-16T11:42:43.658Z,32.96
2018-08-16T11:43:43.668Z,32.51
2018-08-16T11:44:43.641Z,32.72
2018-08-16T11:45:43.627Z,32.89
2018-08-16T11:46:43.649Z,33.15
2018-08-16T11:47:43.609Z,33.19
2018-08-16T11:48:43.602Z,33.29
2018-08-16T11:49:43.603Z,33.66
2018-08-16T11:50:43.584Z,32.35
2018-08-16T11:51:43.571Z,31.32
2018-08-16T11:52:43.569Z,31.65
2018-08-16T11:53:43.554Z,31.16
2018-08-16T11:54:43.561Z,31.66
2018-08-16T11:55:43.537Z,31.73
2018-08-16T11:56:43.530Z,32.43
2018-08-16T11:57:43.522Z,32.51
2018-08-16T11:58:43.540Z,32.45
2018-08-16T11:59:43.522Z,32.62
2018-08-16T12:00:43.494Z,33.06
2018-08-16T12:01:43.485Z,33.47
2018-08-16T12:02:43.480Z,33.32
2018-08-16T12:03:43.467Z,32.69
2018-08-16T12:04:43.462Z,32.01
2018-08-16T12:05:43.459Z,31.50
2018-08-16T12:06:43.442Z,31.32
2018-08-16T12:07:43.434Z,30.79
2018-08-16T12:08:43.428Z,31.34
2018-08-16T12:09:43.416Z,31.46
2018-08-16T12:10:43.419Z,32.15
2018-08-16T12:11:43.401Z,32.59
2018-08-16T12:12:43.392Z,33.18
2018-08-16T12:13:43.384Z,33.49
2018-08-16T12:14:43.402Z,32.75
2018-08-16T12:15:43.389Z,32.62
2018-08-16T12:16:43.361Z,32.41
2018-08-16T12:17:43.352Z,32.59
2018-08-16T12:18:43.342Z,32.77
2018-08-16T12:19:43.332Z,32.82
2018-08-16T12:20:43.329Z,33.11
2018-08-16T12:21:43.329Z,33.31
2018-08-16T12:22:43.311Z,33.69
2018-08-16T12:23:43.299Z,33.51
2018-08-16T12:24:43.293Z,33.63
2018-08-16T12:25:43.282Z,33.79
2018-08-16T12:26:43.296Z,33.75
2018-08-16T12:27:43.265Z,34.02
2018-08-16T12:28:43.258Z,34.40
2018-08-16T12:29:43.250Z,34.35
2018-08-16T12:30:43.241Z,34.08
2018-08-16T12:31:43.233Z,34.02
2018-08-16T12:32:43.237Z,34.28
2018-08-16T12:33:43.221Z,33.51
2018-08-16T12:34:43.213Z,33.51
2018-08-16T12:35:43.202Z,33.76
2018-08-16T12:36:43.195Z,33.65
2018-08-16T12:37:43.236Z,33.65
2018-08-16T12:38:43.179Z,33.81
2018-08-16T12:39:43.169Z,33.73
2018-08-16T12:40:43.253Z,33.65
2018-08-16T12:41:43.154Z,32.18
2018-08-16T12:42:43.168Z,32.62
2018-08-16T12:43:43.143Z,32.62
2018-08-16T12:44:43.133Z,32.85
2018-08-16T12:45:43.124Z,33.44
2018-08-16T12:46:43.116Z,33.75
2018-08-16T12:47:43.173Z,33.54
2018-08-16T12:48:43.112Z,33.38
2018-08-16T12:49:43.094Z,33.87
2018-08-16T12:50:43.085Z,34.61
2018-08-16T12:51:43.079Z,33.76
2018-08-16T12:52:43.071Z,34.00
2018-08-16T12:53:43.159Z,34.75
2018-08-16T12:54:43.055Z,34.72
2018-08-16T12:55:43.051Z,34.89
2018-08-16T12:56:43.049Z,34.37
2018-08-16T12:57:43.032Z,33.50
2018-08-16T12:58:43.026Z,33.61
2018-08-16T12:59:43.027Z,32.89
2018-08-16T13:00:43.012Z,32.50
2018-08-16T13:01:43.032Z,33.37
2018-08-16T13:02:42.997Z,34.05
2018-08-16T13:03:42.990Z,34.59
2018-08-16T13:04:42.992Z,33.56
2018-08-16T13:05:42.973Z,33.44
2018-08-16T13:06:42.967Z,33.19
2018-08-16T13:07:42.961Z,33.76
2018-08-16T13:08:42.958Z,33.63
2018-08-16T13:09:42.954Z,33.82
2018-08-16T13:10:42.939Z,33.91
2018-08-16T13:11:42.932Z,33.91
2018-08-16T13:12:42.926Z,33.50
2018-08-16T13:13:42.917Z,34.08
2018-08-16T13:14:42.922Z,34.37
2018-08-16T13:15:42.903Z,34.21
2018-08-16T13:16:42.897Z,34.19
2018-08-16T13:17:42.889Z,34.52
2018-08-16T13:18:42.883Z,34.85
2018-08-16T13:19:42.896Z,34.31
2018-08-16T13:20:42.869Z,34.21
2018-08-16T13:21:42.862Z,34.56
2018-08-16T13:22:42.860Z,34.53
2018-08-16T13:23:42.915Z,34.08
2018-08-16T13:24:42.844Z,34.44
2018-08-16T13:25:42.846Z,34.42
2018-08-16T13:26:42.832Z,34.54
2018-08-16T13:27:42.913Z,34.65
2018-08-16T13:28:42.818Z,34.22
2018-08-16T13:29:42.810Z,33.71
2018-08-16T13:30:42.815Z,34.16
2018-08-16T13:31:42.800Z,34.35
2018-08-16T13:32:42.792Z,34.39
2018-08-16T13:33:42.786Z,34.81
2018-08-16T13:34:42.782Z,34.22
2018-08-16T13:35:42.806Z,34.73
2018-08-16T13:36:42.771Z,35.03
2018-08-16T13:37:42.758Z,35.22
2018-08-16T13:38:42.756Z,35.26
2018-08-16T13:39:42.755Z,35.63
2018-08-16T13:40:42.746Z,35.72
2018-08-16T13:41:42.750Z,36.12
2018-08-16T13:42:42.730Z,36.50
2018-08-16T13:43:42.726Z,37.00
2018-08-16T13:44:42.722Z,37.13
2018-08-16T13:45:42.719Z,37.32
2018-08-16T13:46:42.722Z,37.21
2018-08-16T13:47:42.706Z,36.88
2018-08-16T13:48:42.766Z,37.21
2018-08-16T13:49:42.697Z,37.12
2018-08-16T13:50:42.689Z,36.69
2018-08-16T13:51:42.707Z,36.09
2018-08-16T13:52:42.680Z,35.96
2018-08-16T13:53:42.676Z,35.72
2018-08-16T13:54:42.671Z,35.59
2018-08-16T13:55:42.684Z,36.00
2018-08-16T13:56:42.664Z,36.20
2018-08-16T13:57:42.670Z,37.06
2018-08-16T13:58:42.656Z,37.49
2018-08-16T13:59:42.652Z,37.17
2018-08-16T14:00:42.649Z,36.95
2018-08-16T14:01:42.650Z,36.91
2018-08-16T14:02:42.649Z,36.88
2018-08-16T14:03:42.631Z,36.84
2018-08-16T14:04:42.630Z,36.95
2018-08-16T14:05:42.625Z,36.59
2018-08-16T14:06:42.619Z,37.22
2018-08-16T14:07:42.620Z,37.47
2018-08-16T14:08:42.628Z,36.99
2018-08-16T14:09:42.610Z,36.35
2018-08-16T14:10:42.604Z,35.68
2018-08-16T14:11:42.602Z,35.16
2018-08-16T14:12:42.665Z,35.48
2018-08-16T14:13:42.608Z,35.15
2018-08-16T14:14:42.590Z,35.25
2018-08-16T14:15:42.587Z,35.82
2018-08-16T14:16:42.591Z,36.31
2018-08-16T14:17:42.581Z,35.65
2018-08-16T14:18:42.587Z,35.63
2018-08-16T14:19:42.575Z,35.43
2018-08-16T14:20:42.575Z,35.66
2018-08-16T14:21:42.568Z,35.18
2018-08-16T14:22:42.567Z,34.58
2018-08-16T14:23:42.561Z,35.38
2018-08-16T14:24:42.567Z,35.81
2018-08-16T14:25:42.560Z,35.11
2018-08-16T14:26:42.551Z,35.10
2018-08-16T14:27:42.551Z,35.71
2018-08-16T14:28:42.545Z,35.43
2018-08-16T14:29:42.540Z,35.14
2018-08-16T14:30:42.547Z,35.93
2018-08-16T14:31:42.534Z,36.76
2018-08-16T14:32:42.534Z,37.00
2018-08-16T14:33:42.528Z,37.07
2018-08-16T14:34:42.522Z,37.44
2018-08-16T14:35:42.529Z,37.44
2018-08-16T14:36:42.516Z,37.49
2018-08-16T14:37:42.513Z,36.15
2018-08-16T14:38:42.549Z,36.69
2018-08-16T14:39:42.512Z,36.91
2018-08-16T14:40:42.516Z,37.21
2018-08-16T14:41:42.501Z,38.16
2018-08-16T14:42:42.499Z,38.12
2018-08-16T14:43:42.497Z,37.75
2018-08-16T14:44:42.496Z,37.79
2018-08-16T14:45:42.496Z,37.29
2018-08-16T14:46:42.500Z,37.39
2018-08-16T14:47:42.488Z,37.51
2018-08-16T14:48:42.488Z,37.57
2018-08-16T14:49:42.483Z,37.88
2018-08-16T14:50:42.484Z,38.07
2018-08-16T14:51:42.484Z,37.91
2018-08-16T14:52:42.492Z,38.22
2018-08-16T14:53:42.478Z,38.57
2018-08-16T14:54:42.475Z,37.75
2018-08-16T14:55:42.473Z,37.64
2018-08-16T14:56:42.473Z,37.67
2018-08-16T14:57:42.482Z,37.72
2018-08-16T14:58:42.470Z,37.78
2018-08-16T14:59:42.469Z,37.55
2018-08-16T15:00:42.481Z,37.91
2018-08-16T15:01:42.466Z,37.84
2018-08-16T15:02:42.476Z,38.20
2018-08-16T15:03:42.468Z,38.68
2018-08-16T15:04:42.462Z,37.69
2018-08-16T15:05:42.462Z,37.93
2018-08-16T15:06:42.462Z,37.86
2018-08-16T15:07:42.495Z,38.16
2018-08-16T15:08:42.461Z,38.75
2018-08-16T15:09:42.456Z,37.96
2018-08-16T15:10:42.492Z,37.59
2018-08-16T15:11:42.459Z,37.47
2018-08-16T15:12:42.461Z,37.18
2018-08-16T15:13:42.468Z,38.06
2018-08-16T15:14:42.461Z,38.16
2018-08-16T15:15:42.459Z,38.86
2018-08-16T15:16:42.458Z,39.04
2018-08-16T15:17:42.459Z,39.22
2018-08-16T15:18:42.471Z,38.41
2018-08-16T15:19:42.459Z,38.31
2018-08-16T15:20:42.460Z,38.75
2018-08-16T15:21:42.461Z,38.69
2018-08-16T15:22:42.471Z,38.83
2018-08-16T15:23:42.471Z,38.79
2018-08-16T15:24:42.459Z,38.61
2018-08-16T15:25:42.461Z,39.16
2018-08-16T15:26:42.461Z,39.32
2018-08-16T15:27:42.470Z,39.30
2018-08-16T15:28:42.501Z,38.93
2018-08-16T15:29:42.467Z,39.07
2018-08-16T15:30:42.466Z,38.90
2018-08-16T15:31:42.463Z,38.95
2018-08-16T15:32:42.465Z,38.25
2018-08-16T15:33:42.463Z,38.49
2018-08-16T15:34:42.474Z,38.93
2018-08-16T15:35:42.468Z,38.68
2018-08-16T15:36:42.468Z,37.88
2018-08-16T15:37:42.468Z,37.49
2018-08-16T15:38:42.470Z,37.94
2018-08-16T15:39:42.481Z,38.38
2018-08-16T15:40:42.488Z,38.09
2018-08-16T15:41:42.474Z,37.56
2018-08-16T15:42:42.474Z,36.91
2018-08-16T15:43:42.476Z,36.88
2018-08-16T15:44:42.486Z,36.56
2018-08-16T15:45:42.476Z,37.27
2018-08-16T15:46:42.479Z,37.27
2018-08-16T15:47:42.479Z,38.16
2018-08-16T15:48:42.483Z,37.79
2018-08-16T15:49:42.494Z,38.23
2018-08-16T15:50:42.482Z,37.74
2018-08-16T15:51:42.484Z,38.47
2018-08-16T15:52:42.485Z,38.65
2018-08-16T15:53:42.486Z,38.96
2018-08-16T15:54:42.486Z,39.60
2018-08-16T15:55:42.501Z,39.82
2018-08-16T15:56:42.489Z,39.98
2018-08-16T15:57:42.490Z,39.96
2018-08-16T15:58:42.492Z,39.89
2018-08-16T15:59:42.493Z,39.81
2018-08-16T16:00:42.504Z,39.54
2018-08-16T16:01:42.497Z,39.77
2018-08-16T16:02:42.499Z,38.37
2018-08-16T16:03:42.500Z,38.65
2018-08-16T16:04:42.499Z,38.76
2018-08-16T16:05:42.714Z,39.04
2018-08-16T16:06:42.504Z,38.28
2018-08-16T16:07:42.507Z,37.50
2018-08-16T16:08:42.509Z,37.17
2018-08-16T16:09:42.509Z,37.18
2018-08-16T16:10:42.511Z,36.57
2018-08-16T16:11:42.523Z,37.02
2018-08-16T16:12:42.514Z,36.68
2018-08-16T16:13:42.522Z,36.56
2018-08-16T16:14:42.519Z,37.13
2018-08-16T16:15:42.525Z,37.72
2018-08-16T16:16:42.534Z,38.31
2018-08-16T16:17:42.523Z,38.30
2018-08-16T16:18:42.528Z,38.63
2018-08-16T16:19:42.527Z,38.31
2018-08-16T16:20:42.530Z,38.53
2018-08-16T16:21:42.541Z,38.04
2018-08-16T16:22:42.533Z,37.89
2018-08-16T16:23:42.534Z,38.47
2018-08-16T16:24:42.549Z,38.53
2018-08-16T16:25:42.536Z,38.91
2018-08-16T16:26:42.557Z,38.52
2018-08-16T16:27:42.542Z,38.42
2018-08-16T16:28:42.543Z,38.52
2018-08-16T16:29:42.544Z,38.32
2018-08-16T16:30:42.558Z,38.30
2018-08-16T16:31:42.550Z,38.40
2018-08-16T16:32:42.560Z,38.16
2018-08-16T16:33:42.552Z,37.37
2018-08-16T16:34:42.555Z,37.37
2018-08-16T16:35:42.556Z,36.73
2018-08-16T16:36:42.559Z,36.93
2018-08-16T16:37:42.571Z,35.99
2018-08-16T16:38:42.563Z,36.08
2018-08-16T16:39:42.564Z,35.77
2018-08-16T16:40:42.567Z,36.19
2018-08-16T16:41:42.567Z,35.94
2018-08-16T16:42:42.583Z,35.96
2018-08-16T16:43:42.576Z,36.31
2018-08-16T16:44:42.572Z,36.49
2018-08-16T16:45:42.576Z,36.78
2018-08-16T16:46:42.576Z,36.90
2018-08-16T16:47:42.578Z,37.15
2018-08-16T16:48:42.592Z,37.21
2018-08-16T16:49:42.635Z,36.64
2018-08-16T16:50:42.582Z,36.91
2018-08-16T16:51:52.676Z,36.29
2018-08-16T16:52:42.585Z,35.55
2018-08-16T16:53:42.597Z,35.41
2018-08-16T16:54:42.591Z,35.72
2018-08-16T16:55:42.592Z,35.43
2018-08-16T16:56:42.594Z,35.65
2018-08-16T16:57:42.593Z,36.00
2018-08-16T16:58:42.610Z,35.87
2018-08-16T16:59:42.595Z,35.90
2018-08-16T17:00:42.597Z,36.50
2018-08-16T17:01:42.596Z,36.91
2018-08-16T17:02:42.597Z,36.88
2018-08-16T17:03:42.619Z,36.69
2018-08-16T17:04:42.600Z,36.88
2018-08-16T17:05:42.600Z,36.69
2018-08-16T17:06:42.606Z,36.56
2018-08-16T17:07:42.601Z,36.59
2018-08-16T17:08:42.604Z,35.99
2018-08-16T17:09:42.616Z,35.56
2018-08-16T17:10:42.604Z,35.96
2018-08-16T17:11:42.605Z,36.09
2018-08-16T17:12:42.609Z,35.40
2018-08-16T17:13:42.607Z,34.53
2018-08-16T17:14:42.618Z,34.19
2018-08-16T17:15:42.608Z,34.52
2018-08-16T17:16:42.608Z,34.78
2018-08-16T17:17:42.606Z,34.82
2018-08-16T17:18:42.609Z,34.64
2018-08-16T17:19:42.628Z,34.52
2018-08-16T17:20:42.609Z,34.27
2018-08-16T17:21:42.607Z,34.09
2018-08-16T17:22:42.608Z,34.19
2018-08-16T17:23:42.607Z,33.84
2018-08-16T17:24:42.607Z,33.59
2018-08-16T17:25:42.617Z,33.97
2018-08-16T17:26:42.607Z,33.95
2018-08-16T17:27:42.606Z,34.03
2018-08-16T17:28:42.604Z,34.02
2018-08-16T17:29:42.604Z,33.87
2018-08-16T17:30:42.615Z,33.53
2018-08-16T17:31:42.601Z,33.45
2018-08-16T17:32:42.599Z,33.35
2018-08-16T17:33:42.598Z,33.03
2018-08-16T17:34:42.598Z,33.28
2018-08-16T17:35:42.626Z,33.14
2018-08-16T17:36:42.603Z,33.09
2018-08-16T17:37:42.589Z,33.06
2018-08-16T17:38:42.589Z,32.28
2018-08-16T17:39:42.590Z,32.66
2018-08-16T17:40:42.591Z,31.92
2018-08-16T17:41:42.591Z,31.89
2018-08-16T17:42:42.595Z,31.80
2018-08-16T17:43:42.602Z,32.19
2018-08-16T17:44:42.651Z,31.51
2018-08-16T17:45:42.749Z,31.36
2018-08-16T17:46:42.738Z,31.12
2018-08-16T17:47:43.291Z,30.83
2018-08-16T17:48:42.613Z,30.73
2018-08-16T17:49:42.566Z,30.54
2018-08-16T17:50:42.687Z,30.38
2018-08-16T17:51:43.153Z,30.43
2018-08-16T17:52:43.186Z,30.43
2018-08-16T17:53:43.219Z,30.23
2018-08-16T17:54:43.156Z,30.08
2018-08-16T17:55:43.315Z,29.98
2018-08-16T17:56:43.151Z,29.90
2018-08-16T17:57:42.717Z,29.78
2018-08-16T17:58:42.631Z,29.86
2018-08-16T17:59:42.716Z,29.83
2018-08-16T18:00:43.179Z,29.71
2018-08-16T18:01:42.527Z,29.64
2018-08-16T18:02:42.564Z,29.65
2018-08-16T18:03:42.571Z,29.48
2018-08-16T18:04:43.340Z,29.41
2018-08-16T18:05:43.245Z,29.14
2018-08-16T18:06:42.623Z,28.90
2018-08-16T18:07:42.561Z,28.89
2018-08-16T18:08:43.152Z,28.67
2018-08-16T18:09:42.561Z,28.64
2018-08-16T18:10:42.500Z,28.62
2018-08-16T18:11:42.508Z,28.44
2018-08-16T18:12:42.496Z,28.44
2018-08-16T18:13:42.585Z,28.24
2018-08-16T18:14:43.266Z,28.09
2018-08-16T18:15:42.429Z,28.12
2018-08-16T18:16:42.653Z,28.11
2018-08-16T18:17:42.548Z,27.97
2018-08-16T18:18:43.219Z,28.06
2018-08-16T18:19:42.465Z,28.00
2018-08-16T18:20:42.652Z,27.92
2018-08-16T18:21:42.539Z,27.92
2018-08-16T18:22:42.435Z,27.75
2018-08-16T18:23:42.396Z,27.67
2018-08-16T18:24:43.238Z,27.65
2018-08-16T18:25:42.477Z,27.65
2018-08-16T18:26:42.510Z,27.63
2018-08-16T18:27:42.364Z,27.41
2018-08-16T18:28:43.163Z,27.47
2018-08-16T18:29:44.172Z,27.37
2018-08-16T18:30:42.516Z,27.39
2018-08-16T18:31:42.429Z,27.29
2018-08-16T18:32:42.331Z,27.32
2018-08-16T18:33:42.263Z,27.22
2018-08-16T18:34:42.258Z,27.19
2018-08-16T18:35:42.281Z,27.06
2018-08-16T18:36:42.278Z,27.03
2018-08-16T18:37:42.249Z,27.12
2018-08-16T18:38:42.228Z,27.04
2018-08-16T18:39:42.238Z,27.03
2018-08-16T18:40:42.209Z,26.92
2018-08-16T18:41:42.318Z,26.85
2018-08-16T18:42:42.271Z,26.81
2018-08-16T18:43:42.305Z,26.66
2018-08-16T18:44:42.316Z,26.62
2018-08-16T18:45:43.687Z,26.57
2018-08-16T18:46:43.184Z,26.58
2018-08-16T18:47:44.673Z,26.55
2018-08-16T18:48:42.741Z,26.63
2018-08-16T18:49:42.122Z,26.54
2018-08-16T18:50:42.769Z,26.54
2018-08-16T18:51:42.147Z,26.48
2018-08-16T18:52:42.213Z,26.48
2018-08-16T18:53:42.712Z,26.48
2018-08-16T18:54:42.176Z,26.37
2018-08-16T18:55:42.075Z,26.36
2018-08-16T18:56:43.172Z,26.36
2018-08-16T18:57:42.072Z,26.26
2018-08-16T18:58:42.119Z,26.23
2018-08-16T18:59:42.253Z,26.20
2018-08-16T19:00:42.075Z,26.13
2018-08-16T19:01:42.045Z,26.09
2018-08-16T19:02:46.697Z,26.21
2018-08-16T19:03:41.998Z,26.09
2018-08-16T19:04:42.248Z,26.10
2018-08-16T19:05:42.193Z,25.99
2018-08-16T19:06:43.700Z,25.92
2018-08-16T19:07:42.080Z,25.77
2018-08-16T19:08:42.025Z,25.85
2018-08-16T19:09:41.938Z,25.82
2018-08-16T19:10:41.906Z,25.82
2018-08-16T19:11:41.898Z,25.75
2018-08-16T19:12:41.888Z,25.67
2018-08-16T19:13:41.877Z,25.67
2018-08-16T19:14:41.874Z,25.70
2018-08-16T19:15:41.866Z,25.76
2018-08-16T19:16:41.850Z,25.70
2018-08-16T19:17:41.832Z,25.76
2018-08-16T19:18:41.857Z,25.67
2018-08-16T19:19:41.813Z,25.52
2018-08-16T19:20:41.821Z,25.61
2018-08-16T19:21:41.789Z,25.64
2018-08-16T19:22:41.779Z,25.58
2018-08-16T19:23:41.773Z,25.58
2018-08-16T19:24:41.762Z,25.52
2018-08-16T19:25:41.758Z,25.43
2018-08-16T19:26:41.733Z,25.33
2018-08-16T19:27:41.725Z,25.27
2018-08-16T19:28:41.716Z,25.24
2018-08-16T19:29:41.787Z,25.27
2018-08-16T19:30:41.714Z,25.27
2018-08-16T19:31:41.680Z,25.32
2018-08-16T19:32:41.676Z,25.21
2018-08-16T19:33:41.660Z,25.18
2018-08-16T19:34:41.656Z,25.23
2018-08-16T19:35:41.711Z,25.15
2018-08-16T19:36:41.629Z,25.14
2018-08-16T19:37:41.615Z,25.14
2018-08-16T19:38:41.605Z,25.13
2018-08-16T19:39:41.594Z,25.00
2018-08-16T19:40:41.584Z,24.98
2018-08-16T19:41:41.582Z,24.95
2018-08-16T19:42:41.562Z,24.84
2018-08-16T19:43:41.549Z,24.85
2018-08-16T19:44:41.535Z,24.80
2018-08-16T19:45:41.526Z,24.80
2018-08-16T19:46:41.528Z,24.76
2018-08-16T19:47:41.504Z,24.68
2018-08-16T19:48:41.493Z,24.50
2018-08-16T19:49:41.481Z,24.50
2018-08-16T19:50:41.472Z,24.43
2018-08-16T19:51:41.480Z,24.50
2018-08-16T19:52:41.447Z,24.39
2018-08-16T19:53:41.436Z,24.30
2018-08-16T19:54:41.428Z,24.30
2018-08-16T19:55:41.415Z,24.18
2018-08-16T19:56:41.403Z,24.18
2018-08-16T19:57:41.402Z,24.15
2018-08-16T19:58:41.379Z,24.10
2018-08-16T19:59:41.368Z,24.06
2018-08-16T20:00:41.356Z,23.94
2018-08-16T20:01:41.382Z,23.97
2018-08-16T20:02:41.360Z,23.88
2018-08-16T20:03:41.367Z,23.70
2018-08-16T20:04:41.338Z,23.69
2018-08-16T20:05:41.335Z,23.73
2018-08-16T20:06:41.292Z,23.58
2018-08-16T20:07:41.305Z,23.65
2018-08-16T20:08:41.293Z,23.51
2018-08-16T20:09:41.258Z,23.55
2018-08-16T20:10:41.242Z,23.54
2018-08-16T20:11:41.232Z,23.53
2018-08-16T20:12:41.228Z,23.36
2018-08-16T20:13:41.214Z,23.55
2018-08-16T20:14:41.193Z,23.40
2018-08-16T20:15:41.182Z,23.50
2018-08-16T20:16:41.170Z,23.42
2018-08-16T20:17:41.169Z,23.43
2018-08-16T20:18:41.146Z,23.43
2018-08-16T20:19:41.157Z,23.33
2018-08-16T20:20:41.137Z,23.43
2018-08-16T20:21:41.113Z,23.40
2018-08-16T20:22:41.117Z,23.32
2018-08-16T20:23:50.294Z,23.27
2018-08-16T20:24:41.075Z,23.12
2018-08-16T20:25:41.061Z,23.13
2018-08-16T20:26:41.049Z,23.12
2018-08-16T20:27:41.035Z,23.04
2018-08-16T20:28:41.035Z,23.04
2018-08-16T20:29:41.011Z,23.10
2018-08-16T20:30:41.002Z,23.04
2018-08-16T20:31:40.988Z,22.94
2018-08-16T20:32:40.974Z,22.83
2018-08-16T20:33:40.974Z,22.77
2018-08-16T20:34:40.950Z,22.88
2018-08-16T20:35:40.943Z,22.80
2018-08-16T20:36:40.925Z,22.75
2018-08-16T20:37:40.912Z,22.62
2018-08-16T20:38:40.916Z,22.76
2018-08-16T20:39:40.889Z,22.58
2018-08-16T20:40:40.875Z,22.54
2018-08-16T20:41:40.866Z,22.46
2018-08-16T20:42:40.851Z,22.30
2018-08-16T20:43:40.838Z,22.27
2018-08-16T20:44:40.836Z,22.31
2018-08-16T20:45:40.815Z,22.33
2018-08-16T20:46:40.801Z,22.21
2018-08-16T20:47:40.791Z,22.30
2018-08-16T20:48:40.776Z,22.21
2018-08-16T20:49:40.772Z,22.10
2018-08-16T20:50:40.749Z,22.06
2018-08-16T20:51:40.739Z,22.07
2018-08-16T20:52:40.729Z,22.07
2018-08-16T20:53:40.715Z,21.96
2018-08-16T20:54:40.711Z,21.94
2018-08-16T20:55:40.689Z,21.77
2018-08-16T20:56:40.679Z,21.69
2018-08-16T20:57:40.663Z,21.72
2018-08-16T20:58:40.651Z,21.67
2018-08-16T20:59:40.660Z,21.56
2018-08-16T21:00:40.721Z,21.54
2018-08-16T21:01:40.613Z,21.49
2018-08-16T21:02:40.599Z,21.53
2018-08-16T21:03:40.588Z,21.52
2018-08-16T21:04:40.625Z,21.64
2018-08-16T21:05:40.572Z,21.72
2018-08-16T21:06:40.548Z,21.67
2018-08-16T21:07:40.535Z,21.67
2018-08-16T21:08:40.523Z,21.64
2018-08-16T21:09:40.526Z,21.64
2018-08-16T21:10:40.498Z,21.69
2018-08-16T21:11:40.484Z,21.64
2018-08-16T21:12:40.516Z,21.58
2018-08-16T21:13:40.458Z,21.53
2018-08-16T21:14:40.467Z,21.49
2018-08-16T21:15:40.434Z,21.49
2018-08-16T21:16:40.418Z,21.42
2018-08-16T21:17:40.407Z,21.37
2018-08-16T21:18:40.395Z,21.25
2018-08-16T21:19:40.381Z,21.21
2018-08-16T21:20:40.423Z,21.14
2018-08-16T21:21:40.385Z,21.16
2018-08-16T21:22:40.344Z,21.14
2018-08-16T21:23:40.330Z,21.09
2018-08-16T21:24:40.317Z,21.04
2018-08-16T21:25:40.313Z,21.01
2018-08-16T21:26:40.289Z,20.92
2018-08-16T21:27:40.335Z,20.97
2018-08-16T21:28:40.265Z,20.85
2018-08-16T21:29:40.258Z,20.84
2018-08-16T21:30:40.380Z,20.79
2018-08-16T21:31:40.225Z,20.76
2018-08-16T21:32:40.210Z,20.67
2018-08-16T21:33:40.198Z,20.61
2018-08-16T21:34:40.263Z,20.59
2018-08-16T21:35:40.184Z,20.55
2018-08-16T21:36:40.158Z,20.48
2018-08-16T21:37:40.149Z,20.36
2018-08-16T21:38:40.130Z,20.36
2018-08-16T21:39:40.119Z,20.29
2018-08-16T21:40:40.125Z,20.28
2018-08-16T21:41:40.092Z,20.16
2018-08-16T21:42:40.078Z,20.17
2018-08-16T21:43:40.068Z,20.14
2018-08-16T21:44:40.051Z,20.10
2018-08-16T21:45:40.039Z,20.13
2018-08-16T21:46:40.037Z,20.03
2018-08-16T21:47:40.012Z,20.01
2018-08-16T21:48:39.998Z,19.95
2018-08-16T21:49:39.982Z,19.83
2018-08-16T21:50:39.969Z,19.94
2018-08-16T21:51:39.967Z,19.84
2018-08-16T21:52:39.944Z,19.86
2018-08-16T21:53:39.928Z,19.92
2018-08-16T21:54:39.918Z,19.88
2018-08-16T21:55:39.905Z,19.99
2018-08-16T21:56:39.903Z,20.03
2018-08-16T21:57:39.877Z,20.05
2018-08-16T21:58:39.864Z,20.03
2018-08-16T21:59:39.849Z,19.98
2018-08-16T22:00:39.838Z,19.99
2018-08-16T22:01:39.819Z,19.99
2018-08-16T22:02:39.826Z,19.95
2018-08-16T22:03:39.796Z,19.94
2018-08-16T22:04:39.781Z,19.86
2018-08-16T22:05:39.795Z,19.86
2018-08-16T22:06:39.753Z,19.73
2018-08-16T22:07:39.753Z,19.73
2018-08-16T22:08:39.724Z,19.62
2018-08-16T22:09:39.710Z,19.59
2018-08-16T22:10:39.700Z,19.59
2018-08-16T22:11:39.684Z,19.51
2018-08-16T22:12:39.687Z,19.50
2018-08-16T22:13:39.659Z,19.50
2018-08-16T22:14:39.643Z,19.46
2018-08-16T22:15:39.630Z,19.31
2018-08-16T22:16:39.616Z,19.37
2018-08-16T22:17:39.620Z,19.36
2018-08-16T22:18:39.588Z,19.26
2018-08-16T22:19:39.573Z,19.23
2018-08-16T22:20:39.558Z,19.23
2018-08-16T22:21:39.549Z,19.25
2018-08-16T22:22:39.531Z,19.28
2018-08-16T22:23:39.529Z,19.26
2018-08-16T22:24:39.509Z,19.28
2018-08-16T22:25:39.491Z,19.18
2018-08-16T22:26:39.479Z,19.10
2018-08-16T22:27:39.463Z,19.07
2018-08-16T22:28:39.466Z,19.04
2018-08-16T22:29:39.435Z,19.04
2018-08-16T22:30:39.420Z,19.06
2018-08-16T22:31:39.406Z,19.00
2018-08-16T22:32:39.393Z,18.95
2018-08-16T22:33:39.382Z,18.95
2018-08-16T22:34:39.376Z,18.95
2018-08-16T22:35:39.353Z,19.04
2018-08-16T22:36:39.391Z,18.98
2018-08-16T22:37:39.323Z,18.88
2018-08-16T22:38:39.305Z,18.94
2018-08-16T22:39:39.306Z,18.88
2018-08-16T22:40:39.283Z,18.92
2018-08-16T22:41:39.269Z,18.98
2018-08-16T22:42:39.251Z,18.90
2018-08-16T22:43:39.239Z,18.85
2018-08-16T22:44:39.241Z,18.85
2018-08-16T22:45:39.209Z,18.82
2018-08-16T22:46:39.196Z,18.85
2018-08-16T22:47:39.182Z,18.76
2018-08-16T22:48:39.166Z,18.75
2018-08-16T22:49:39.180Z,18.78
2018-08-16T22:50:39.139Z,18.85
2018-08-16T22:51:39.182Z,18.76
2018-08-16T22:52:39.109Z,18.70
2018-08-16T22:53:39.095Z,18.66
2018-08-16T22:54:39.082Z,18.72
2018-08-16T22:55:39.077Z,18.72
2018-08-16T22:56:39.054Z,18.67
2018-08-16T22:57:39.036Z,18.72
2018-08-16T22:58:39.025Z,18.72
2018-08-16T22:59:39.014Z,18.65
2018-08-16T23:00:39.011Z,18.52
2018-08-16T23:01:38.984Z,18.45
2018-08-16T23:02:38.967Z,18.54
2018-08-16T23:03:38.953Z,18.39
2018-08-16T23:04:38.942Z,18.47
2018-08-16T23:05:38.919Z,18.55
2018-08-16T23:06:38.917Z,18.50
2018-08-16T23:07:38.898Z,18.48
2018-08-16T23:08:38.880Z,18.35
2018-08-16T23:09:38.868Z,18.36
2018-08-16T23:10:38.849Z,18.26
2018-08-16T23:11:38.846Z,18.25
2018-08-16T23:12:38.825Z,18.25
2018-08-16T23:13:38.810Z,18.30
2018-08-16T23:14:38.795Z,18.27
2018-08-16T23:15:38.780Z,18.20
2018-08-16T23:16:38.775Z,18.25
2018-08-16T23:17:38.755Z,18.21
2018-08-16T23:18:38.737Z,18.20
2018-08-16T23:19:38.723Z,18.14
2018-08-16T23:20:38.706Z,18.07
2018-08-16T23:21:38.703Z,18.08
2018-08-16T23:22:38.681Z,18.07
2018-08-16T23:23:38.665Z,18.03
2018-08-16T23:24:38.648Z,18.07
2018-08-16T23:25:38.634Z,17.97
2018-08-16T23:26:38.637Z,18.00
2018-08-16T23:27:38.606Z,18.00
2018-08-16T23:28:38.591Z,18.00
2018-08-16T23:29:38.577Z,18.00
2018-08-16T23:30:38.559Z,18.00
2018-08-16T23:31:38.548Z,18.03
2018-08-16T23:32:38.542Z,18.03
2018-08-16T23:33:38.516Z,18.05
2018-08-16T23:34:38.502Z,18.07
2018-08-16T23:35:38.487Z,18.10
2018-08-16T23:36:38.475Z,17.95
2018-08-16T23:37:38.477Z,18.07
2018-08-16T23:38:38.445Z,17.92
2018-08-16T23:39:38.428Z,17.99
2018-08-16T23:40:38.416Z,17.92
2018-08-16T23:41:38.401Z,17.90
2018-08-16T23:42:38.401Z,17.97
2018-08-16T23:43:38.370Z,17.92
2018-08-16T23:44:38.356Z,17.84
2018-08-16T23:45:38.339Z,17.95
2018-08-16T23:46:38.326Z,17.93
2018-08-16T23:47:38.323Z,17.86
2018-08-16T23:48:38.300Z,17.89
2018-08-16T23:49:38.282Z,17.90
2018-08-16T23:50:38.268Z,17.87
2018-08-16T23:51:38.253Z,17.95
2018-08-16T23:52:38.258Z,17.93
2018-08-16T23:53:38.225Z,17.81
2018-08-16T23:54:38.208Z,17.74
2018-08-16T23:55:38.190Z,17.82
2018-08-16T23:56:38.182Z,17.79
2018-08-16T23:57:38.163Z,17.86
2018-08-16T23:58:38.154Z,17.84
2018-08-16T23:59:38.134Z,17.77
